Etusivu
METAR-TAF:

METAR-TAF

Lentoasemat :

Bodø, Norja

Bodøn lentoasema

Leveyspiiri: 67-16N, Pituuspiiri: 014-22E, korkeus merenpinnasta: 1 m

Tämänhetkinen sää

Tämä raportti tehtiin 28 minuuttia sitten, kello 18.20 UTC
Tuuli 9 kn pohjoisesta/koillisesta
Lämpötila 18°C
Kosteus 49%
Ilmanpaine 1020 hPa
Näkyvyys 10 km tai enemmän
Muutamia pilviä 4000 ft:n korkeudessa

METAR: ENBO 221820Z 03009KT 9999 FEW040 18/07 Q1020 NOSIG

Aika: 20:48 (18:48 UTC)

Sääennuste

Ennuste voimassa 22. päivästä klo 18 UTC - 23. päivään klo 18 UTC
Tuuli 8 kn pohjoisesta/koillisesta
Näkyvyys 10 km tai enemmän
Muutamia pilviä 4000 ft:n korkeudessa
Tulossa
22. päivästä klo 20 UTC - 22. päivään klo 22 UTC
Tuuli 10 kn idästä
Tulossa
23. päivästä klo 10 UTC - 23. päivään klo 12 UTC
Tuuli 8 kn pohjoisesta/koillisesta

TAF: ENBO 2218/2318 02008KT 9999 FEW040 BECMG 2220/2222 09010KT BECMG 2310/2312 02008KT

Säähavainnot ja -ennusteet yli 4000 lentoasemalta (METAR- ja TAF-raportit).

Käytössä olevat sääasemat on merkitty karttaan keltaisilla ja punaisilla pisteillä.

Aseta hiiri pisteen päälle nähdäksesi sääaseman nimen.

Klikkaa sitten nähdäksesi säähavainnot ja -ennusteet.

Kartan vaihtaminen: klikkaa mustalla rastilla varustettuja vihreitä pisteitä, niin voit zoomata sisään; viivalla varustettua vihreää pistettä, niin voit zoomata ulos tai vihreitä nuolia, niin pääset viereisille kartoille.


METAR-TAF: